Time;durP1;ratioP1;P1;durP2;ratioP2;P2;SDS_P1;SDS_P2;PMS_P1;PMS_P2;Temp;Humidity;BMP_temperature;BMP_pressure;BME280_temperature;BME280_humidity;BME280_pressure;Samples;Min_cycle;Max_cycle;Signal;HPM_P1;HPM_P2
2022/10/14 00:02:21;;;;;;;37.60;28.97;;;;;;;8.19;100.00;99594.09;6277348;22;20202;-80
2022/10/14 00:04:48;;;;;;;38.30;30.37;;;;;;;8.16;100.00;99590.00;6277126;22;20283;-80
2022/10/14 00:07:15;;;;;;;37.77;29.90;;;;;;;8.18;100.00;99592.44;6277444;22;20204;-81
2022/10/14 00:09:41;;;;;;;36.97;29.63;;;;;;;8.13;100.00;99586.91;6277097;22;20519;-80
2022/10/14 00:12:08;;;;;;;38.20;31.00;;;;;;;8.16;100.00;99587.34;6276245;22;20270;-80
2022/10/14 00:14:35;;;;;;;41.40;30.83;;;;;;;8.21;100.00;99587.53;6276904;22;20223;-80
2022/10/14 00:17:01;;;;;;;40.93;30.07;;;;;;;8.13;100.00;99576.22;6235446;22;20212;-81
2022/10/14 00:19:28;;;;;;;37.57;30.50;;;;;;;8.13;100.00;99584.25;6276881;22;20208;-81
2022/10/14 00:21:54;;;;;;;39.77;30.77;;;;;;;8.12;100.00;99577.28;6277504;22;20207;-80
2022/10/14 00:24:21;;;;;;;40.97;31.30;;;;;;;8.14;100.00;99564.53;6278280;22;20207;-82
2022/10/14 00:26:48;;;;;;;41.43;30.63;;;;;;;8.08;100.00;99566.16;6298666;22;20213;-81
2022/10/14 00:29:17;;;;;;;38.37;30.10;;;;;;;8.07;100.00;99574.41;6313522;22;20212;-82
2022/10/14 00:31:44;;;;;;;39.17;29.83;;;;;;;8.01;100.00;99577.88;6313098;22;20212;-81
2022/10/14 00:34:13;;;;;;;41.20;30.60;;;;;;;7.98;100.00;99571.09;6285167;22;20261;-82
2022/10/14 00:36:40;;;;;;;35.03;29.77;;;;;;;7.92;100.00;99572.75;6259053;22;20203;-81
2022/10/14 00:39:08;;;;;;;43.67;31.07;;;;;;;7.89;100.00;99567.81;6284306;22;20213;-81
2022/10/14 00:41:37;;;;;;;38.73;30.67;;;;;;;7.90;100.00;99573.97;6282883;22;20207;-80
2022/10/14 00:44:07;;;;;;;39.43;30.60;;;;;;;7.90;100.00;99569.44;6282923;22;20651;-81
2022/10/14 00:46:37;;;;;;;38.00;29.77;;;;;;;7.87;100.00;99563.72;6309404;22;20199;-80
2022/10/14 00:49:11;;;;;;;39.80;30.77;;;;;;;7.87;100.00;99569.03;6256930;22;20530;-80
2022/10/14 00:51:40;;;;;;;36.60;29.37;;;;;;;7.87;100.00;99571.72;6282192;22;20548;-80
2022/10/14 00:54:06;;;;;;;36.57;30.33;;;;;;;7.86;100.00;99562.88;6257007;22;20188;-80
2022/10/14 00:56:34;;;;;;;41.70;30.60;;;;;;;7.95;100.00;99556.31;6309781;22;20203;-80
2022/10/14 00:59:02;;;;;;;42.77;31.47;;;;;;;7.88;100.00;99552.84;6283382;22;20258;-80
2022/10/14 01:01:29;;;;;;;38.77;29.53;;;;;;;7.79;100.00;99553.25;6255977;22;20233;-80
2022/10/14 01:03:56;;;;;;;40.27;30.63;;;;;;;7.80;100.00;99557.53;6282850;22;20214;-80
2022/10/14 01:06:42;;;;;;;39.37;29.30;;;;;;;7.70;100.00;99552.59;6310189;22;20211;-80
2022/10/14 01:09:18;;;;;;;37.27;29.83;;;;;;;7.70;100.00;99559.78;6283082;22;20211;-81
2022/10/14 01:12:01;;;;;;;38.17;29.53;;;;;;;7.63;100.00;99557.09;6282711;22;20210;-80
2022/10/14 01:15:15;;;;;;;38.70;29.63;;;;;;;7.59;100.00;99561.19;6262962;22;20207;-81
2022/10/14 01:18:06;;;;;;;36.30;29.03;;;;;;;7.59;100.00;99560.38;6285196;22;20282;-80
2022/10/14 01:20:33;;;;;;;37.37;29.47;;;;;;;7.55;100.00;99559.97;6311701;22;20219;-81
2022/10/14 01:23:42;;;;;;;38.33;29.67;;;;;;;7.52;100.00;99555.00;6310784;22;20222;-81
2022/10/14 01:26:23;;;;;;;43.33;31.43;;;;;;;7.51;100.00;99562.19;6185113;23;20210;-80
2022/10/14 01:29:25;;;;;;;41.27;30.87;;;;;;;7.48;100.00;99561.78;6272239;22;20202;-80
2022/10/14 01:32:01;;;;;;;39.37;29.50;;;;;;;7.44;100.00;99561.38;6282466;22;20230;-80
2022/10/14 01:34:38;;;;;;;40.90;31.07;;;;;;;7.48;100.00;99561.78;6282580;22;20204;-81
2022/10/14 01:37:12;;;;;;;42.23;31.00;;;;;;;7.46;100.00;99558.50;6283570;22;20206;-80
2022/10/14 01:39:52;;;;;;;41.23;31.07;;;;;;;7.41;100.00;99553.78;6258553;22;20246;-80
2022/10/14 01:42:23;;;;;;;41.37;31.57;;;;;;;7.45;100.00;99562.19;6255715;22;20237;-80
2022/10/14 01:44:54;;;;;;;42.80;31.03;;;;;;;7.38;100.00;99551.50;6283236;22;20203;-81
2022/10/14 01:47:21;;;;;;;41.87;31.60;;;;;;;7.38;100.00;99550.69;6282669;22;20285;-81
2022/10/14 01:49:55;;;;;;;40.90;31.10;;;;;;;7.36;100.00;99560.72;6281739;22;20195;-81
2022/10/14 01:52:26;;;;;;;38.50;31.20;;;;;;;7.29;100.00;99552.69;6256774;22;20238;-81
2022/10/14 01:54:55;;;;;;;40.20;29.97;;;;;;;7.25;100.00;99539.97;6280770;22;20210;-80
2022/10/14 01:57:25;;;;;;;39.37;30.13;;;;;;;7.35;100.00;99543.91;6280236;22;20594;-80
2022/10/14 01:59:53;;;;;;;38.27;29.83;;;;;;;7.26;100.00;99544.28;6254248;22;20260;-80
2022/10/14 02:02:20;;;;;;;40.30;29.07;;;;;;;7.22;100.00;99548.38;6254024;22;20264;-80
2022/10/14 02:04:47;;;;;;;37.03;28.90;;;;;;;7.14;100.00;99536.03;6280753;22;20202;-79
2022/10/14 02:07:28;;;;;;;38.47;29.60;;;;;;;7.13;100.00;99536.25;6279868;22;20211;-81
2022/10/14 02:10:03;;;;;;;41.63;30.77;;;;;;;7.26;100.00;99528.31;6308103;22;20214;-81
2022/10/14 02:13:07;;;;;;;38.20;29.60;;;;;;;7.19;100.00;99532.78;6309729;22;20207;-82
2022/10/14 02:15:56;;;;;;;38.50;30.03;;;;;;;7.13;100.00;99538.94;6285607;22;20207;-83
2022/10/14 02:18:34;;;;;;;42.00;30.60;;;;;;;7.14;100.00;99537.91;6285536;22;20525;-82
2022/10/14 02:21:36;;;;;;;34.47;28.03;;;;;;;7.14;100.00;99538.69;6286934;22;20202;-81
2022/10/14 02:24:14;;;;;;;38.27;29.57;;;;;;;7.15;100.00;99535.03;6307155;22;20236;-81
2022/10/14 02:26:42;;;;;;;50.17;33.00;;;;;;;7.16;100.00;99535.84;6253970;22;20218;-80
2022/10/14 02:29:08;;;;;;;50.50;34.23;;;;;;;7.22;100.00;99535.06;6277934;22;20214;-80
2022/10/14 02:31:37;;;;;;;54.07;34.17;;;;;;;7.21;100.00;99538.75;6278407;22;20203;-79
2022/10/14 02:34:06;;;;;;;53.73;36.37;;;;;;;7.23;100.00;99550.03;6305718;22;20206;-80
2022/10/14 02:36:35;;;;;;;54.80;36.13;;;;;;;7.27;100.00;99540.63;6282206;22;20226;-81
2022/10/14 02:39:05;;;;;;;56.77;35.83;;;;;;;7.35;100.00;99548.41;6257117;22;20600;-81
2022/10/14 02:41:34;;;;;;;70.50;37.80;;;;;;;7.39;100.00;99539.81;6284363;22;20196;-81
2022/10/14 02:44:01;;;;;;;84.03;39.13;;;;;;;7.38;100.00;99538.16;6283741;22;20262;-81
2022/10/14 02:46:28;;;;;;;70.23;38.03;;;;;;;7.43;100.00;99533.06;6311160;22;20205;-82
2022/10/14 02:48:54;;;;;;;84.23;40.77;;;;;;;7.52;100.00;99523.03;6310062;22;20191;-81
2022/10/14 02:51:21;;;;;;;74.00;40.17;;;;;;;7.60;100.00;99528.19;6306809;22;20549;-80
2022/10/14 02:53:47;;;;;;;74.43;40.20;;;;;;;7.60;100.00;99524.69;6307052;22;20210;-81
2022/10/14 02:56:15;;;;;;;79.93;39.93;;;;;;;7.63;100.00;99513.63;6280843;22;20278;-81
2022/10/14 02:58:41;;;;;;;94.37;42.43;;;;;;;7.67;100.00;99513.00;6309679;22;20722;-81
2022/10/14 03:01:08;;;;;;;112.80;42.27;;;;;;;7.73;100.00;99503.38;6284075;22;20199;-82
2022/10/14 03:03:38;;;;;;;86.50;42.13;;;;;;;7.74;100.00;99511.19;6312944;22;20245;-81
2022/10/14 03:06:05;;;;;;;82.20;42.80;;;;;;;7.80;100.00;99521.00;6279957;22;20246;-82
2022/10/14 03:08:33;;;;;;;136.60;45.40;;;;;;;7.80;100.00;99509.53;6280624;22;20203;-81
2022/10/14 03:11:00;;;;;;;89.70;45.53;;;;;;;7.81;100.00;99528.00;6278971;22;20226;-80
2022/10/14 03:13:26;;;;;;;75.80;43.00;;;;;;;7.85;100.00;99534.56;6279265;22;20203;-80
2022/10/14 03:15:53;;;;;;;76.63;42.83;;;;;;;7.91;100.00;99538.25;6279723;22;20207;-80
2022/10/14 03:18:20;;;;;;;72.33;42.17;;;;;;;7.94;100.00;99538.66;6307823;22;20207;-80
2022/10/14 03:20:49;;;;;;;79.20;43.80;;;;;;;7.97;100.00;99540.94;6281105;22;20207;-80
2022/10/14 03:23:21;;;;;;;82.97;42.83;;;;;;;8.04;100.00;99548.94;6280522;22;20200;-80
2022/10/14 03:25:51;;;;;;;79.20;41.37;;;;;;;8.05;100.00;99549.75;6306176;22;20191;-81
2022/10/14 03:28:23;;;;;;;73.30;41.13;;;;;;;8.11;100.00;99548.94;6279976;22;20213;-81
2022/10/14 03:31:01;;;;;;;99.00;42.47;;;;;;;8.16;100.00;99538.47;6280141;22;20252;-81
2022/10/14 03:33:50;;;;;;;75.70;40.53;;;;;;;8.21;100.00;99541.34;6306088;22;20218;-80
2022/10/14 03:36:17;;;;;;;83.97;42.37;;;;;;;8.18;100.00;99549.75;6281022;22;20528;-81
2022/10/14 03:38:48;;;;;;;76.90;43.47;;;;;;;8.20;100.00;99555.72;6281710;22;20232;-82
2022/10/14 03:41:24;;;;;;;84.10;45.07;;;;;;;8.21;100.00;99552.03;6257671;22;20210;-81
2022/10/14 03:43:51;;;;;;;70.37;41.97;;;;;;;8.16;100.00;99549.97;6306902;22;20278;-81
2022/10/14 03:46:18;;;;;;;70.43;40.63;;;;;;;8.21;100.00;99555.50;6305873;22;20564;-81
2022/10/14 03:48:48;;;;;;;70.30;43.60;;;;;;;8.25;100.00;99561.25;6280886;22;20555;-81
2022/10/14 03:51:15;;;;;;;66.87;40.37;;;;;;;8.30;100.00;99550.81;6279937;22;20209;-80
2022/10/14 03:53:42;;;;;;;66.67;40.90;;;;;;;8.32;100.00;99549.56;6308215;22;20210;-81
2022/10/14 03:56:11;;;;;;;66.27;40.73;;;;;;;8.27;100.00;99554.69;6282036;22;20216;-80
2022/10/14 03:58:37;;;;;;;62.37;39.83;;;;;;;8.25;100.00;99554.09;6282274;22;20214;-81
2022/10/14 04:01:10;;;;;;;66.27;40.63;;;;;;;8.27;100.00;99549.34;6282303;22;20207;-81
2022/10/14 04:03:56;;;;;;;64.83;39.27;;;;;;;8.29;100.00;99555.34;6286819;22;20270;-80
2022/10/14 04:06:24;;;;;;;63.93;40.30;;;;;;;8.24;100.00;99543.59;6281679;22;20541;-81
2022/10/14 04:08:55;;;;;;;59.27;37.93;;;;;;;8.22;100.00;99550.97;6281792;22;20204;-80
2022/10/14 04:11:28;;;;;;;63.50;38.17;;;;;;;8.20;100.00;99561.06;6281798;22;20207;-81
2022/10/14 04:14:01;;;;;;;59.67;38.50;;;;;;;8.19;100.00;99560.22;6282733;22;20610;-81
2022/10/14 04:16:30;;;;;;;64.70;40.00;;;;;;;8.18;100.00;99549.75;6283807;22;20579;-81
2022/10/14 04:19:05;;;;;;;60.73;39.30;;;;;;;8.19;100.00;99557.56;6284670;22;20207;-81
2022/10/14 04:21:32;;;;;;;59.97;38.63;;;;;;;8.20;100.00;99551.22;6284426;22;20231;-81
2022/10/14 04:23:59;;;;;;;57.87;39.57;;;;;;;8.25;100.00;99542.56;6311531;22;20512;-81
2022/10/14 04:26:37;;;;;;;52.80;38.47;;;;;;;8.28;100.00;99542.97;6278369;22;20547;-80
2022/10/14 04:29:10;;;;;;;55.97;38.37;;;;;;;8.33;100.00;99543.22;6278740;22;20227;-81
2022/10/14 04:31:51;;;;;;;60.35;45.75;;;;;;;8.38;100.00;99545.25;6278145;22;20445;-81
2022/10/14 04:34:18;;;;;;;55.13;39.17;;;;;;;8.36;100.00;99544.63;6279049;22;20288;-81
2022/10/14 04:36:44;;;;;;;58.73;39.20;;;;;;;8.39;100.00;99546.91;6279256;22;20235;-81
2022/10/14 04:39:23;;;;;;;57.63;40.20;;;;;;;8.45;100.00;99550.56;6306267;22;20203;-81
2022/10/14 04:41:51;;;;;;;56.13;39.70;;;;;;;8.43;100.00;99553.47;6279950;22;20531;-82
2022/10/14 04:44:19;;;;;;;55.20;39.30;;;;;;;8.49;100.00;99557.16;6280780;22;20204;-80
2022/10/14 04:46:49;;;;;;;50.40;36.17;;;;;;;8.48;100.00;99555.53;6279514;22;20237;-81
2022/10/14 04:49:19;;;;;;;49.30;35.03;;;;;;;8.48;100.00;99547.50;6279205;22;20698;-81
2022/10/14 04:51:54;;;;;;;44.07;33.43;;;;;;;8.57;100.00;99557.75;6256006;22;20208;-82
2022/10/14 04:54:27;;;;;;;44.47;32.40;;;;;;;8.56;100.00;99558.78;6277246;22;20255;-80
2022/10/14 04:56:57;;;;;;;42.90;33.13;;;;;;;8.60;100.00;99551.16;6277182;22;20204;-80
2022/10/14 04:59:24;;;;;;;40.60;31.77;;;;;;;8.65;100.00;99556.72;6278489;22;20203;-81
2022/10/14 05:02:18;;;;;;;138.10;100.73;;;;;;;8.75;100.00;99552.59;6254715;22;20218;-81
2022/10/14 05:04:50;;;;;;;98.23;71.87;;;;;;;8.74;100.00;99558.94;6278438;22;20231;-81
2022/10/14 05:07:16;;;;;;;70.57;53.23;;;;;;;8.81;100.00;99550.94;6276001;22;20660;-81
2022/10/14 05:09:47;;;;;;;56.00;42.10;;;;;;;8.81;100.00;99551.75;6275370;22;20208;-81
2022/10/14 05:12:27;;;;;;;43.90;35.17;;;;;;;8.85;100.00;99557.50;6274888;22;20628;-81
2022/10/14 05:14:58;;;;;;;39.37;32.80;;;;;;;8.80;100.00;99552.78;6275701;22;20196;-82
2022/10/14 05:17:32;;;;;;;38.13;31.63;;;;;;;8.89;100.00;99556.03;6275746;22;20237;-81
2022/10/14 05:19:59;;;;;;;36.43;30.73;;;;;;;8.88;100.00;99556.25;6275762;22;20204;-81
2022/10/14 05:22:26;;;;;;;39.67;31.13;;;;;;;8.86;100.00;99561.00;6276794;22;20660;-81
2022/10/14 05:24:53;;;;;;;38.67;31.33;;;;;;;8.95;100.00;99557.06;6275479;22;20196;-81
2022/10/14 05:27:20;;;;;;;38.47;29.63;;;;;;;8.99;100.00;99558.25;6275010;22;20215;-81
2022/10/14 05:29:47;;;;;;;47.73;32.17;;;;;;;9.05;100.00;99568.91;6274645;22;20540;-81
2022/10/14 05:32:15;;;;;;;41.80;31.37;;;;;;;9.08;100.00;99573.84;6274071;22;20208;-81
2022/10/14 05:34:47;;;;;;;42.13;30.73;;;;;;;9.09;100.00;99567.50;6274544;22;20540;-81
2022/10/14 05:37:22;;;;;;;40.20;30.53;;;;;;;9.17;100.00;99590.47;6274189;22;20211;-81
2022/10/14 05:39:51;;;;;;;46.23;31.67;;;;;;;9.21;100.00;99586.34;6275260;22;20283;-82
2022/10/14 05:42:21;;;;;;;47.47;30.43;;;;;;;9.26;100.00;99590.03;6281630;22;20665;-82
2022/10/14 05:44:51;;;;;;;42.60;30.50;;;;;;;9.25;100.00;99595.56;6275900;22;20245;-81
2022/10/14 05:47:18;;;;;;;48.60;30.87;;;;;;;9.29;100.00;99594.13;6275710;22;20227;-82
2022/10/14 05:49:47;;;;;;;53.97;32.63;;;;;;;9.40;100.00;99600.66;6300548;22;20704;-82
2022/10/14 05:52:14;;;;;;;57.87;34.50;;;;;;;9.50;100.00;99601.03;6275396;22;20211;-82
2022/10/14 05:54:42;;;;;;;54.97;34.47;;;;;;;9.55;100.00;99599.38;6277128;22;20290;-81
2022/10/14 05:57:11;;;;;;;56.33;34.93;;;;;;;9.65;100.00;99596.22;6271427;22;20279;-80
2022/10/14 05:59:37;;;;;;;58.43;34.53;;;;;;;9.70;100.00;99597.19;6273559;22;20200;-80
2022/10/14 06:02:04;;;;;;;59.10;36.20;;;;;;;9.88;100.00;99595.69;6296806;22;20230;-80
2022/10/14 06:04:32;;;;;;;57.47;36.03;;;;;;;10.03;100.00;99604.22;6271334;22;20227;-83
2022/10/14 06:07:02;;;;;;;57.47;36.13;;;;;;;10.19;100.00;99605.56;6297591;22;20212;-82
2022/10/14 06:09:30;;;;;;;53.80;35.13;;;;;;;10.35;100.00;99602.38;6272586;22;20211;-82
2022/10/14 06:11:56;;;;;;;52.37;34.37;;;;;;;10.48;100.00;99599.56;6246118;22;20232;-82
2022/10/14 06:14:23;;;;;;;53.43;36.10;;;;;;;10.60;100.00;99598.63;6273900;22;20521;-83
2022/10/14 06:16:51;;;;;;;50.53;36.07;;;;;;;10.75;100.00;99609.00;6271541;22;20204;-82
2022/10/14 06:19:18;;;;;;;51.93;35.33;;;;;;;10.89;100.00;99609.69;6272002;22;20232;-82
2022/10/14 06:21:44;;;;;;;49.87;34.93;;;;;;;11.08;100.00;99607.84;6270096;22;20204;-83
2022/10/14 06:24:11;;;;;;;49.73;34.07;;;;;;;11.21;100.00;99603.13;6270607;22;20200;-82
2022/10/14 06:26:37;;;;;;;46.67;33.40;;;;;;;11.37;100.00;99609.78;6285903;22;20207;-82
2022/10/14 06:29:04;;;;;;;46.93;33.53;;;;;;;11.53;100.00;99611.00;6304232;22;20413;-82
2022/10/14 06:31:31;;;;;;;46.43;33.07;;;;;;;11.74;100.00;99616.75;6252090;22;20521;-81
2022/10/14 06:33:58;;;;;;;44.03;33.03;;;;;;;11.95;100.00;99617.25;6304117;22;20234;-82
2022/10/14 06:36:25;;;;;;;40.67;32.30;;;;;;;12.13;100.00;99620.72;6303648;22;20261;-82
2022/10/14 06:38:51;;;;;;;39.73;31.00;;;;;;;12.19;100.00;99622.47;6304456;22;20207;-82
2022/10/14 06:41:18;;;;;;;39.23;30.63;;;;;;;12.34;100.00;99627.44;6304674;22;20249;-82
2022/10/14 06:43:44;;;;;;;40.80;31.73;;;;;;;12.42;100.00;99626.25;6303974;22;20215;-83
2022/10/14 06:46:11;;;;;;;40.20;31.23;;;;;;;12.63;100.00;99636.47;6303358;22;20683;-82
2022/10/14 06:48:38;;;;;;;36.63;30.10;;;;;;;12.77;100.00;99632.50;6304413;22;20204;-81
2022/10/14 06:51:04;;;;;;;38.37;29.53;;;;;;;12.94;100.00;99633.44;6304694;22;20207;-83
2022/10/14 06:53:31;;;;;;;36.47;29.70;;;;;;;13.05;100.00;99631.78;6277207;22;20226;-81
2022/10/14 06:55:59;;;;;;;37.33;29.63;;;;;;;13.16;100.00;99634.47;6304062;22;20694;-81
2022/10/14 06:58:26;;;;;;;34.10;28.73;;;;;;;13.35;100.00;99637.84;6277086;22;20211;-81
2022/10/14 07:00:53;;;;;;;34.73;29.57;;;;;;;13.46;100.00;99633.50;6277045;22;20242;-83
2022/10/14 07:03:20;;;;;;;36.03;29.50;;;;;;;13.56;100.00;99628.31;6304541;22;20229;-81
2022/10/14 07:05:47;;;;;;;36.63;28.60;;;;;;;13.69;100.00;99633.44;6304362;22;20212;-82
2022/10/14 07:08:13;;;;;;;34.00;28.73;;;;;;;13.76;100.00;99628.72;6303687;22;20701;-81
2022/10/14 07:10:41;;;;;;;34.70;28.17;;;;;;;13.84;100.00;99628.34;6304573;22;20212;-81
2022/10/14 07:13:08;;;;;;;34.80;29.00;;;;;;;13.81;100.00;99633.41;6304332;22;20209;-82
2022/10/14 07:15:36;;;;;;;33.80;28.20;;;;;;;13.76;100.00;99627.91;6304283;22;20214;-81
2022/10/14 07:18:04;;;;;;;33.47;26.77;;;;;;;13.72;100.00;99626.75;6303275;22;20213;-81
2022/10/14 07:20:32;;;;;;;34.20;28.10;;;;;;;13.58;100.00;99627.00;6300758;22;20202;-82
2022/10/14 07:22:59;;;;;;;35.77;28.70;;;;;;;13.58;100.00;99626.19;6302106;22;20209;-83
2022/10/14 07:25:25;;;;;;;32.67;27.20;;;;;;;13.59;100.00;99627.84;6302806;22;20685;-80
2022/10/14 07:27:52;;;;;;;32.30;26.23;;;;;;;13.65;100.00;99622.31;6303032;22;20716;-81
2022/10/14 07:30:20;;;;;;;31.47;25.70;;;;;;;13.60;100.00;99627.59;6301015;22;20211;-82
2022/10/14 07:32:46;;;;;;;29.70;25.97;;;;;;;13.58;100.00;99624.31;6302180;22;20226;-83
2022/10/14 07:35:13;;;;;;;33.17;27.23;;;;;;;13.59;100.00;99625.16;6302727;22;20209;-81
2022/10/14 07:37:39;;;;;;;31.17;26.90;;;;;;;13.51;100.00;99623.66;6301266;22;20205;-81
2022/10/14 07:40:07;;;;;;;30.27;26.07;;;;;;;13.52;100.00;99625.31;6302711;22;20221;-81
2022/10/14 07:42:33;;;;;;;29.20;25.90;;;;;;;13.54;100.00;99622.34;6302762;22;20265;-82
2022/10/14 07:45:00;;;;;;;30.40;25.87;;;;;;;13.60;100.00;99618.72;6301920;22;20204;-80
2022/10/14 07:47:27;;;;;;;29.37;25.73;;;;;;;13.67;100.00;99627.44;6303054;22;20519;-81
2022/10/14 07:49:53;;;;;;;30.03;26.00;;;;;;;13.87;100.00;99627.03;6303439;22;20276;-81
2022/10/14 07:52:20;;;;;;;31.00;25.43;;;;;;;13.95;100.00;99626.66;6302341;22;20552;-80
2022/10/14 07:54:46;;;;;;;29.73;26.13;;;;;;;14.14;100.00;99619.19;6302303;22;20677;-81
2022/10/14 07:57:13;;;;;;;28.43;25.03;;;;;;;14.17;100.00;99619.50;6303591;22;20205;-82
2022/10/14 07:59:40;;;;;;;30.77;26.77;;;;;;;14.26;100.00;99622.63;6274719;22;20220;-82
2022/10/14 08:02:06;;;;;;;37.40;27.50;;;;;;;14.38;100.00;99621.50;6301720;22;20216;-82
2022/10/14 08:04:33;;;;;;;38.07;27.80;;;;;;;14.47;100.00;99611.94;6302718;22;20205;-82
2022/10/14 08:07:00;;;;;;;33.20;28.20;;;;;;;14.63;100.00;99621.13;6303291;22;20692;-81
2022/10/14 08:09:26;;;;;;;35.27;26.57;;;;;;;14.84;100.00;99614.13;6302163;22;20666;-82
2022/10/14 08:11:53;;;;;;;33.40;26.93;;;;;;;15.00;100.00;99613.28;6303705;22;20204;-83
2022/10/14 08:14:20;;;;;;;34.30;27.50;;;;;;;15.10;100.00;99620.72;6302951;22;20210;-80
2022/10/14 08:16:46;;;;;;;34.43;28.17;;;;;;;15.31;100.00;99611.81;6303976;22;20197;-83
2022/10/14 08:19:13;;;;;;;38.10;27.57;;;;;;;15.51;100.00;99620.19;6276695;22;20207;-81
2022/10/14 08:21:41;;;;;;;33.97;26.33;;;;;;;15.72;100.00;99623.97;6303118;22;20206;-81
2022/10/14 08:24:09;;;;;;;34.97;27.37;;;;;;;15.93;100.00;99616.88;6302805;22;20215;-82
2022/10/14 08:26:38;;;;;;;33.23;26.60;;;;;;;16.12;100.00;99607.34;6303129;22;20239;-80
2022/10/14 08:29:07;;;;;;;32.73;25.37;;;;;;;16.30;100.00;99604.25;6276401;22;20204;-82
2022/10/14 08:31:33;;;;;;;30.50;25.80;;;;;;;16.37;100.00;99618.41;6303183;22;20672;-80
2022/10/14 08:34:00;;;;;;;31.20;23.80;;;;;;;16.52;100.00;99618.50;6303266;22;20690;-80
2022/10/14 08:36:27;;;;;;;31.33;25.33;;;;;;;16.67;100.00;99620.53;6302884;22;20734;-81
2022/10/14 08:38:54;;;;;;;30.07;25.47;;;;;;;16.83;100.00;99616.88;6303861;22;20207;-80
2022/10/14 08:42:06;;;;;;;32.50;26.53;;;;;;;17.04;100.00;99618.63;6303614;22;20207;-80
2022/10/14 08:44:40;;;;;;;30.10;24.67;;;;;;;17.21;100.00;99615.75;6297337;22;20211;-80
2022/10/14 08:47:14;;;;;;;31.60;24.63;;;;;;;17.38;100.00;99624.50;6276709;22;20206;-79
2022/10/14 08:50:02;;;;;;;26.27;23.03;;;;;;;17.43;100.00;99619.09;6276103;22;20226;-80
2022/10/14 08:52:37;;;;;;;22.10;19.63;;;;;;;17.38;100.00;99619.09;6276138;22;20199;-80
2022/10/14 08:55:17;;;;;;;20.90;18.57;;;;;;;17.35;100.00;99610.69;6275397;22;20199;-79
2022/10/14 08:57:52;;;;;;;21.10;18.80;;;;;;;17.34;100.00;99617.16;6275989;22;20286;-80
2022/10/14 09:00:19;;;;;;;21.23;18.73;;;;;;;17.33;100.00;99604.69;6276958;22;20286;-81
2022/10/14 09:02:48;;;;;;;19.93;18.03;;;;;;;17.26;98.82;99612.28;6278090;22;20230;-81
2022/10/14 09:05:17;;;;;;;20.77;18.07;;;;;;;17.40;100.00;99606.09;6277428;22;20526;-81
2022/10/14 09:07:44;;;;;;;18.23;16.33;;;;;;;17.56;100.00;99609.66;6278610;22;20211;-79
2022/10/14 09:10:14;;;;;;;18.00;15.67;;;;;;;17.70;97.37;99613.53;6277033;22;20203;-82
2022/10/14 09:12:41;;;;;;;16.60;14.90;;;;;;;17.86;96.44;99603.56;6303583;22;20199;-84
2022/10/14 09:15:21;;;;;;;17.67;14.43;;;;;;;18.09;92.79;99608.50;6273076;22;20215;-80
2022/10/14 09:18:16;;;;;;;16.90;15.13;;;;;;;18.38;91.57;99604.16;6304665;22;20231;-81
2022/10/14 09:20:43;;;;;;;15.87;14.13;;;;;;;18.56;88.67;99610.19;6278175;22;20231;-80
2022/10/14 09:23:22;;;;;;;18.17;14.90;;;;;;;18.89;85.61;99602.28;6277711;22;20203;-80
2022/10/14 09:25:54;;;;;;;14.10;12.70;;;;;;;18.71;83.63;99607.47;6303940;22;20214;-82
2022/10/14 09:28:35;;;;;;;14.83;13.30;;;;;;;19.17;80.34;99614.44;6304387;22;20209;-80
2022/10/14 09:31:02;;;;;;;15.70;13.40;;;;;;;19.18;79.19;99604.34;6277022;22;20211;-80
2022/10/14 09:33:29;;;;;;;14.67;13.27;;;;;;;19.54;76.16;99597.75;6304375;22;20200;-81
2022/10/14 09:35:56;;;;;;;13.77;12.40;;;;;;;19.86;73.22;99602.75;6252815;22;20543;-80
2022/10/14 09:38:25;;;;;;;12.90;11.60;;;;;;;19.92;72.50;99600.81;6278120;22;20209;-81
2022/10/14 09:40:58;;;;;;;11.97;10.67;;;;;;;19.92;71.66;99596.19;6305162;22;20719;-80
2022/10/14 09:43:25;;;;;;;12.50;10.77;;;;;;;20.06;70.27;99608.03;6278020;22;20227;-82
2022/10/14 09:46:01;;;;;;;10.33;9.33;;;;;;;19.81;69.37;99599.22;6305173;22;20211;-80
2022/10/14 09:48:45;;;;;;;10.10;9.10;;;;;;;19.84;68.85;99593.22;6303287;22;20257;-81
2022/10/14 09:51:21;;;;;;;11.23;9.93;;;;;;;19.86;69.48;99610.06;6277782;22;20283;-80
2022/10/14 09:53:50;;;;;;;8.80;7.53;;;;;;;19.81;68.80;99591.88;6277893;22;20209;-82
2022/10/14 09:56:27;;;;;;;8.17;7.37;;;;;;;19.72;69.98;99596.28;6304271;22;20205;-81
2022/10/14 09:58:56;;;;;;;7.97;6.60;;;;;;;19.79;69.24;99594.88;6305022;22;20227;-81
2022/10/14 10:01:26;;;;;;;6.40;5.80;;;;;;;19.80;67.79;99592.97;6304840;22;20217;-81
2022/10/14 10:03:54;;;;;;;8.63;7.80;;;;;;;19.74;67.38;99594.91;6278053;22;20601;-80
2022/10/14 10:06:24;;;;;;;6.67;6.03;;;;;;;19.61;67.31;99589.28;6304614;22;20318;-81
2022/10/14 10:08:55;;;;;;;6.80;6.10;;;;;;;19.25;68.61;99597.56;6278239;22;20220;-80
2022/10/14 10:11:39;;;;;;;8.80;7.03;;;;;;;19.61;68.40;99594.72;6277169;22;20415;-81
2022/10/14 10:14:31;;;;;;;6.70;6.07;;;;;;;19.80;69.10;99587.53;6277292;22;20237;-80
2022/10/14 10:17:07;;;;;;;8.00;7.07;;;;;;;20.00;67.71;99583.88;6303376;22;20201;-81
2022/10/14 10:19:50;;;;;;;7.50;6.27;;;;;;;20.13;65.64;99586.78;6304796;22;20211;-81
2022/10/14 10:22:25;;;;;;;7.77;7.07;;;;;;;19.65;66.39;99574.84;6304230;22;20234;-81
2022/10/14 10:25:01;;;;;;;8.67;7.10;;;;;;;19.50;67.38;99577.66;6262838;22;20198;-80
2022/10/14 10:27:34;;;;;;;8.87;7.17;;;;;;;19.11;69.08;99577.50;6285030;22;20263;-82
2022/10/14 10:30:15;;;;;;;7.03;6.33;;;;;;;19.61;67.35;99576.50;6273301;22;20744;-81
2022/10/14 10:32:47;;;;;;;7.17;6.50;;;;;;;19.72;66.79;99577.25;6272714;22;20205;-81
2022/10/14 10:35:21;;;;;;;7.57;5.50;;;;;;;20.49;64.82;99575.63;6272717;22;20679;-81
2022/10/14 10:38:00;;;;;;;5.97;5.30;;;;;;;20.95;63.32;99584.19;6271885;22;20201;-82
2022/10/14 10:40:52;;;;;;;6.13;5.53;;;;;;;21.29;61.47;99579.47;6273288;22;20214;-81
2022/10/14 10:43:48;;;;;;;5.63;5.13;;;;;;;21.63;60.10;99573.84;6272077;22;20323;-81
2022/10/14 10:46:32;;;;;;;6.77;5.87;;;;;;;21.67;58.78;99569.44;6273105;22;20210;-81
2022/10/14 10:49:09;;;;;;;7.23;5.80;;;;;;;21.23;59.37;99563.47;6273429;22;20263;-81
2022/10/14 10:51:52;;;;;;;6.80;6.00;;;;;;;21.61;59.08;99567.06;6272229;22;20273;-82
2022/10/14 10:55:00;;;;;;;6.93;5.17;;;;;;;21.86;58.15;99556.63;6271362;22;20201;-81
2022/10/14 10:57:51;;;;;;;6.00;5.40;;;;;;;22.17;57.25;99556.97;6179594;23;20216;-81
2022/10/14 11:00:21;;;;;;;7.17;6.23;;;;;;;21.99;56.59;99546.91;6154777;23;20295;-80
2022/10/14 11:02:54;;;;;;;6.80;6.10;;;;;;;21.75;57.56;99540.69;6230898;22;20591;-81
2022/10/14 11:05:26;;;;;;;6.83;5.57;;;;;;;22.05;56.85;99540.28;6273607;22;20231;-81
2022/10/14 11:13:58;;;;;;;6.50;5.33;;;;;;;20.55;60.54;99526.31;6273534;22;20295;-81
2022/10/14 11:16:27;;;;;;;5.90;5.30;;;;;;;20.77;59.65;99514.94;6271615;22;20204;-81
2022/10/14 11:19:02;;;;;;;5.23;4.60;;;;;;;20.94;59.04;99517.22;6273226;22;20658;-81
2022/10/14 11:21:38;;;;;;;5.60;5.10;;;;;;;20.01;61.63;99514.81;6275703;22;20280;-81
2022/10/14 11:24:17;;;;;;;7.10;4.80;;;;;;;20.31;61.71;99513.75;6270858;22;20286;-80
2022/10/14 11:26:59;;;;;;;5.33;4.63;;;;;;;20.28;61.29;99508.88;6271300;22;20208;-80
2022/10/14 11:30:05;;;;;;;7.30;6.40;;;;;;;20.53;61.19;99514.91;6273172;22;20215;-81
2022/10/14 11:32:38;;;;;;;5.37;4.53;;;;;;;21.14;60.15;99506.06;6271188;22;20276;-79
2022/10/14 11:35:44;;;;;;;5.67;5.03;;;;;;;20.94;59.28;99500.88;6273320;22;20211;-80
2022/10/14 11:38:25;;;;;;;4.97;4.57;;;;;;;20.95;59.25;99497.06;6260179;22;20214;-81
2022/10/14 11:41:04;;;;;;;5.87;4.47;;;;;;;21.65;58.50;99500.75;6273260;22;20730;-81
2022/10/14 11:43:38;;;;;;;7.33;6.67;;;;;;;21.57;57.52;99500.59;6272972;22;20239;-81
2022/10/14 11:46:13;;;;;;;6.20;5.07;;;;;;;21.32;58.68;99494.41;6272384;22;20214;-80